Pagina principale
METAR-TAF:

METAR-TAF

Aeroporti :

Aeroporto di Tirana

Tirana, Albania

latitudine: 41-20N, longitudine: 019-47E, altezza: 89 m

Osservazione

Il bollettino è stato emesso 15 minuti fa, alle 04:20 UTC
Vento 2 kt da sud
Temperature 20°C
Umidità 88%
Pressione 1013 hPa
Visibilità 10 km o più
nessuna nube inferiore a 1500 m e nessun cumulonembo

METAR: LATI 180420Z 18002KT CAVOK 20/18 Q1013 NOSIG

Ora: 06:35 (04:35 UTC)

Previsione

Il bollettino è stato emesso 5 ore e 35 minuti fa, alle 23:00 UTC
Previsione valida dal 18 alle 00 UTC al 18 alle 24 UTC
Vento 4 kt da direzioni variabili
Visibilità 10 km o più
nessuna nube inferiore a 1500 m e nessun cumulonembo
Temporaneamente
dal 18 alle 11 UTC al 18 alle 16 UTC
Vento 12 kt da nord/nord-ovest
Poco nuvoloso ad un'altezza di 4000 ft, Cumulo congesto.
Nubi sparse ad un'altezza di 12000 ft

TAF: LATI 172300Z 1800/1824 VRB04KT CAVOK TX35/1812Z TN19/1804Z TEMPO 1811/1816 34012KT FEW040TCU SCT120

Osservazioni e previsioni meteorologiche di più di 4000 aeroporti (messaggi METAR e TAF).

Le stazioni disponibili sono rappresentate dai dischi gialli e rossi sulla carta.

Puntare il mouse per vedere il nome della stazione.

Clicca sopra per visualizzare le osservazioni e previsioni meteorologiche.

Per cambiare la mappa : fare clic sui pulsanti verdi con una croce nera per ingrandire, il pulsante verde con un trattino per diminuire, o sulla freccia verde per le mappe adiacenti.


METAR-TAF: